sensor_id;sensor_type;location;lat;lon;timestamp;pressure;altitude;pressure_sealevel;temperature
1532;BMP280;759;53.170;8.210;2022-12-24T00:02:05;99095.09;;;5.98
1532;BMP280;759;53.170;8.210;2022-12-24T00:04:31;99078.91;;;5.82
1532;BMP280;759;53.170;8.210;2022-12-24T00:06:56;99138.19;;;6.17
1532;BMP280;759;53.170;8.210;2022-12-24T00:09:21;99106.84;;;6.01
1532;BMP280;759;53.170;8.210;2022-12-24T00:11:47;99131.00;;;6.14
1532;BMP280;759;53.170;8.210;2022-12-24T00:14:12;99103.44;;;6.00
1532;BMP280;759;53.170;8.210;2022-12-24T00:16:37;99123.88;;;6.07
1532;BMP280;759;53.170;8.210;2022-12-24T00:19:02;99145.69;;;6.25
1532;BMP280;759;53.170;8.210;2022-12-24T00:21:28;99140.41;;;6.22
1532;BMP280;759;53.170;8.210;2022-12-24T00:23:53;99141.53;;;6.24
1532;BMP280;759;53.170;8.210;2022-12-24T00:26:18;99136.63;;;6.23
1532;BMP280;759;53.170;8.210;2022-12-24T00:28:43;99100.41;;;5.98
1532;BMP280;759;53.170;8.210;2022-12-24T00:31:13;99157.00;;;6.37
1532;BMP280;759;53.170;8.210;2022-12-24T00:33:39;99157.03;;;6.30
1532;BMP280;759;53.170;8.210;2022-12-24T00:36:05;99149.91;;;6.23
1532;BMP280;759;53.170;8.210;2022-12-24T00:38:30;99146.53;;;6.15
1532;BMP280;759;53.170;8.210;2022-12-24T00:41:00;99166.91;;;6.29
1532;BMP280;759;53.170;8.210;2022-12-24T00:43:27;99151.78;;;6.26
1532;BMP280;759;53.170;8.210;2022-12-24T00:45:52;99162.03;;;6.24
1532;BMP280;759;53.170;8.210;2022-12-24T00:48:17;99153.41;;;6.13
1532;BMP280;759;53.170;8.210;2022-12-24T00:50:43;99173.06;;;6.22
1532;BMP280;759;53.170;8.210;2022-12-24T00:53:08;99162.38;;;6.26
1532;BMP280;759;53.170;8.210;2022-12-24T00:55:33;99155.22;;;6.23
1532;BMP280;759;53.170;8.210;2022-12-24T00:57:58;99165.41;;;6.28
1532;BMP280;759;53.170;8.210;2022-12-24T01:00:24;99127.69;;;6.02
1532;BMP280;759;53.170;8.210;2022-12-24T01:02:49;99176.75;;;6.32
1532;BMP280;759;53.170;8.210;2022-12-24T01:05:14;99162.03;;;6.24
1532;BMP280;759;53.170;8.210;2022-12-24T01:07:43;99182.81;;;6.33
1532;BMP280;759;53.170;8.210;2022-12-24T01:10:10;99127.72;;;5.95
1532;BMP280;759;53.170;8.210;2022-12-24T01:12:36;99176.03;;;6.28
1532;BMP280;759;53.170;8.210;2022-12-24T01:15:02;99145.13;;;6.03
1532;BMP280;759;53.170;8.210;2022-12-24T01:17:30;99096.91;;;5.64
1532;BMP280;759;53.170;8.210;2022-12-24T01:19:56;99146.28;;;5.99
1532;BMP280;759;53.170;8.210;2022-12-24T01:22:21;99112.72;;;5.74
1532;BMP280;759;53.170;8.210;2022-12-24T01:24:46;99125.19;;;5.81
1532;BMP280;759;53.170;8.210;2022-12-24T01:27:12;99155.72;;;6.07
1532;BMP280;759;53.170;8.210;2022-12-24T01:29:37;99081.03;;;5.56
1532;BMP280;759;53.170;8.210;2022-12-24T01:32:02;99167.06;;;6.11
1532;BMP280;759;53.170;8.210;2022-12-24T01:34:28;99163.28;;;6.09
1532;BMP280;759;53.170;8.210;2022-12-24T01:36:53;99183.31;;;6.20
1532;BMP280;759;53.170;8.210;2022-12-24T01:39:18;99192.72;;;6.25
1532;BMP280;759;53.170;8.210;2022-12-24T01:41:43;99179.16;;;6.16
1532;BMP280;759;53.170;8.210;2022-12-24T01:44:50;99182.97;;;6.15
1532;BMP280;759;53.170;8.210;2022-12-24T01:47:26;99219.25;;;6.32
1532;BMP280;759;53.170;8.210;2022-12-24T01:49:56;99204.16;;;6.22
1532;BMP280;759;53.170;8.210;2022-12-24T01:52:32;99186.75;;;6.17
1532;BMP280;759;53.170;8.210;2022-12-24T01:55:13;99208.28;;;6.30
1532;BMP280;759;53.170;8.210;2022-12-24T01:57:55;99189.78;;;6.12
1532;BMP280;759;53.170;8.210;2022-12-24T02:00:22;99200.00;;;6.17
1532;BMP280;759;53.170;8.210;2022-12-24T02:02:48;99175.09;;;6.04
1532;BMP280;759;53.170;8.210;2022-12-24T02:05:34;99225.34;;;6.29
1532;BMP280;759;53.170;8.210;2022-12-24T02:08:01;99229.13;;;6.32
1532;BMP280;759;53.170;8.210;2022-12-24T02:10:27;99226.09;;;6.30
1532;BMP280;759;53.170;8.210;2022-12-24T02:12:53;99218.53;;;6.28
1532;BMP280;759;53.170;8.210;2022-12-24T02:15:19;99149.88;;;5.74
1532;BMP280;759;53.170;8.210;2022-12-24T02:17:52;99235.19;;;6.32
1532;BMP280;759;53.170;8.210;2022-12-24T02:20:40;99159.75;;;5.70
1532;BMP280;759;53.170;8.210;2022-12-24T02:26:17;99220.50;;;6.20
1532;BMP280;759;53.170;8.210;2022-12-24T02:34:15;99247.31;;;6.33
1532;BMP280;759;53.170;8.210;2022-12-24T02:37:05;99237.47;;;6.30
1532;BMP280;759;53.170;8.210;2022-12-24T02:39:52;99253.41;;;6.30
1532;BMP280;759;53.170;8.210;2022-12-24T02:42:25;99239.78;;;6.28
1532;BMP280;759;53.170;8.210;2022-12-24T02:44:55;99234.53;;;6.21
1532;BMP280;759;53.170;8.210;2022-12-24T02:47:25;99260.22;;;6.31
1532;BMP280;759;53.170;8.210;2022-12-24T02:49:51;99253.78;;;6.29
1532;BMP280;759;53.170;8.210;2022-12-24T02:52:27;99261.75;;;6.32
1532;BMP280;759;53.170;8.210;2022-12-24T02:54:53;99242.50;;;6.14
1532;BMP280;759;53.170;8.210;2022-12-24T02:57:42;99271.59;;;6.35
1532;BMP280;759;53.170;8.210;2022-12-24T03:00:15;99266.31;;;6.28
1532;BMP280;759;53.170;8.210;2022-12-24T03:02:53;99283.38;;;6.34
1532;BMP280;759;53.170;8.210;2022-12-24T03:08:15;99284.19;;;6.24
1532;BMP280;759;53.170;8.210;2022-12-24T03:10:56;99249.06;;;5.98
1532;BMP280;759;53.170;8.210;2022-12-24T03:13:23;99289.06;;;6.33
1532;BMP280;759;53.170;8.210;2022-12-24T03:15:49;99275.06;;;6.25
1532;BMP280;759;53.170;8.210;2022-12-24T03:18:22;99298.94;;;6.32
1532;BMP280;759;53.170;8.210;2022-12-24T03:23:30;99303.03;;;6.40
1532;BMP280;759;53.170;8.210;2022-12-24T03:25:59;99251.31;;;6.07
1532;BMP280;759;53.170;8.210;2022-12-24T03:28:26;99294.38;;;6.29
1532;BMP280;759;53.170;8.210;2022-12-24T03:30:52;99228.69;;;5.85
1532;BMP280;759;53.170;8.210;2022-12-24T03:33:18;99247.50;;;6.04
1532;BMP280;759;53.170;8.210;2022-12-24T03:35:44;99295.13;;;6.33
1532;BMP280;759;53.170;8.210;2022-12-24T03:38:09;99218.81;;;5.81
1532;BMP280;759;53.170;8.210;2022-12-24T03:40:34;99264.53;;;6.11
1532;BMP280;759;53.170;8.210;2022-12-24T03:43:00;99227.53;;;5.82
1532;BMP280;759;53.170;8.210;2022-12-24T03:45:25;99208.25;;;5.71
1532;BMP280;759;53.170;8.210;2022-12-24T03:47:50;99241.84;;;5.99
1532;BMP280;759;53.170;8.210;2022-12-24T03:50:16;99214.25;;;5.86
1532;BMP280;759;53.170;8.210;2022-12-24T03:52:41;99256.59;;;6.11
1532;BMP280;759;53.170;8.210;2022-12-24T03:55:06;99292.16;;;6.24
1532;BMP280;759;53.170;8.210;2022-12-24T03:57:32;99309.53;;;6.36
1532;BMP280;759;53.170;8.210;2022-12-24T03:59:57;99311.47;;;6.32
1532;BMP280;759;53.170;8.210;2022-12-24T04:02:22;99251.03;;;5.87
1532;BMP280;759;53.170;8.210;2022-12-24T04:04:47;99313.31;;;6.35
1532;BMP280;759;53.170;8.210;2022-12-24T04:07:13;99304.25;;;6.32
1532;BMP280;759;53.170;8.210;2022-12-24T04:09:38;99327.69;;;6.41
1532;BMP280;759;53.170;8.210;2022-12-24T04:12:05;99239.66;;;5.90
1532;BMP280;759;53.170;8.210;2022-12-24T04:14:30;99279.38;;;6.04
1532;BMP280;759;53.170;8.210;2022-12-24T04:16:56;99315.69;;;6.22
1532;BMP280;759;53.170;8.210;2022-12-24T04:19:21;99241.25;;;5.66
1532;BMP280;759;53.170;8.210;2022-12-24T04:21:46;99279.00;;;5.95
1532;BMP280;759;53.170;8.210;2022-12-24T04:24:12;99292.28;;;6.02
1532;BMP280;759;53.170;8.210;2022-12-24T04:26:37;99293.78;;;6.07
1532;BMP280;759;53.170;8.210;2022-12-24T04:29:02;99333.84;;;6.31
1532;BMP280;759;53.170;8.210;2022-12-24T04:31:27;99341.06;;;6.34
1532;BMP280;759;53.170;8.210;2022-12-24T04:33:52;99315.31;;;6.20
1532;BMP280;759;53.170;8.210;2022-12-24T04:36:18;99361.09;;;6.42
1532;BMP280;759;53.170;8.210;2022-12-24T04:38:45;99260.56;;;5.77
1532;BMP280;759;53.170;8.210;2022-12-24T04:41:12;99273.00;;;5.84
1532;BMP280;759;53.170;8.210;2022-12-24T04:43:38;99318.34;;;6.22
1532;BMP280;759;53.170;8.210;2022-12-24T04:46:08;99351.19;;;6.46
1532;BMP280;759;53.170;8.210;2022-12-24T04:48:35;99355.78;;;6.45
1532;BMP280;759;53.170;8.210;2022-12-24T04:51:04;99308.91;;;6.14
1532;BMP280;759;53.170;8.210;2022-12-24T04:53:30;99317.22;;;6.23
1532;BMP280;759;53.170;8.210;2022-12-24T04:55:56;99324.72;;;6.35
1532;BMP280;759;53.170;8.210;2022-12-24T04:58:21;99292.16;;;6.24
1532;BMP280;759;53.170;8.210;2022-12-24T05:00:47;99303.09;;;6.33
1532;BMP280;759;53.170;8.210;2022-12-24T05:03:12;99257.75;;;6.02
1532;BMP280;759;53.170;8.210;2022-12-24T05:05:37;99335.94;;;6.57
1532;BMP280;759;53.170;8.210;2022-12-24T05:08:03;99318.56;;;6.45
1532;BMP280;759;53.170;8.210;2022-12-24T05:10:28;99376.34;;;6.86
1532;BMP280;759;53.170;8.210;2022-12-24T05:12:53;99338.84;;;6.77
1532;BMP280;759;53.170;8.210;2022-12-24T05:15:19;99346.75;;;6.84
1532;BMP280;759;53.170;8.210;2022-12-24T05:17:44;99287.09;;;6.44
1532;BMP280;759;53.170;8.210;2022-12-24T05:20:10;99332.03;;;6.76
1532;BMP280;759;53.170;8.210;2022-12-24T05:22:35;99286.63;;;6.56
1532;BMP280;759;53.170;8.210;2022-12-24T05:25:19;99327.38;;;6.88
1532;BMP280;759;53.170;8.210;2022-12-24T05:28:20;99371.81;;;7.28
1532;BMP280;759;53.170;8.210;2022-12-24T05:30:45;99327.19;;;7.05
1532;BMP280;759;53.170;8.210;2022-12-24T05:33:10;99346.06;;;7.18
1532;BMP280;759;53.170;8.210;2022-12-24T05:35:36;99338.84;;;7.19
1532;BMP280;759;53.170;8.210;2022-12-24T05:38:01;99392.81;;;7.57
1532;BMP280;759;53.170;8.210;2022-12-24T05:40:26;99350.63;;;7.21
1532;BMP280;759;53.170;8.210;2022-12-24T05:42:51;99409.13;;;7.63
1532;BMP280;759;53.170;8.210;2022-12-24T05:45:17;99309.06;;;6.97
1532;BMP280;759;53.170;8.210;2022-12-24T05:47:42;99343.38;;;7.22
1532;BMP280;759;53.170;8.210;2022-12-24T05:50:07;99426.13;;;7.73
1532;BMP280;759;53.170;8.210;2022-12-24T05:52:33;99434.44;;;7.78
1532;BMP280;759;53.170;8.210;2022-12-24T05:54:58;99440.44;;;7.86
1532;BMP280;759;53.170;8.210;2022-12-24T05:57:23;99358.81;;;7.34
1532;BMP280;759;53.170;8.210;2022-12-24T05:59:49;99331.63;;;7.19
1532;BMP280;759;53.170;8.210;2022-12-24T06:02:14;99377.34;;;7.45
1532;BMP280;759;53.170;8.210;2022-12-24T06:04:40;99332.34;;;7.23
1532;BMP280;759;53.170;8.210;2022-12-24T06:07:05;99384.47;;;7.55
1532;BMP280;759;53.170;8.210;2022-12-24T06:09:30;99327.13;;;7.13
1532;BMP280;759;53.170;8.210;2022-12-24T06:11:56;99346.00;;;7.25
1532;BMP280;759;53.170;8.210;2022-12-24T06:14:21;99451.63;;;8.04
1532;BMP280;759;53.170;8.210;2022-12-24T06:16:46;99455.81;;;8.05
1532;BMP280;759;53.170;8.210;2022-12-24T06:19:12;99364.13;;;7.38
1532;BMP280;759;53.170;8.210;2022-12-24T06:21:37;99333.13;;;7.20
1532;BMP280;759;53.170;8.210;2022-12-24T06:24:02;99331.69;;;7.16
1532;BMP280;759;53.170;8.210;2022-12-24T06:26:28;99349.81;;;7.24
1532;BMP280;759;53.170;8.210;2022-12-24T06:28:53;99351.38;;;7.22
1532;BMP280;759;53.170;8.210;2022-12-24T06:31:21;99349.44;;;7.22
1532;BMP280;759;53.170;8.210;2022-12-24T06:33:47;99365.69;;;7.32
1532;BMP280;759;53.170;8.210;2022-12-24T06:36:14;99472.28;;;7.93
1532;BMP280;759;53.170;8.210;2022-12-24T06:38:39;99360.56;;;7.14
1532;BMP280;759;53.170;8.210;2022-12-24T06:41:05;99475.38;;;7.91
1532;BMP280;759;53.170;8.210;2022-12-24T06:43:31;99479.84;;;7.98
1532;BMP280;759;53.170;8.210;2022-12-24T06:45:58;99478.69;;;7.99
1532;BMP280;759;53.170;8.210;2022-12-24T06:48:24;99491.22;;;8.02
1532;BMP280;759;53.170;8.210;2022-12-24T06:50:49;99493.13;;;8.02
1532;BMP280;759;53.170;8.210;2022-12-24T06:53:17;99489.72;;;8.01
1532;BMP280;759;53.170;8.210;2022-12-24T06:55:42;99496.91;;;8.04
1532;BMP280;759;53.170;8.210;2022-12-24T06:58:08;99501.88;;;8.02
1532;BMP280;759;53.170;8.210;2022-12-24T07:00:33;99514.81;;;8.00
1532;BMP280;759;53.170;8.210;2022-12-24T07:02:59;99515.53;;;8.04
1532;BMP280;759;53.170;8.210;2022-12-24T07:05:24;99523.16;;;8.06
1532;BMP280;759;53.170;8.210;2022-12-24T07:07:49;99521.69;;;7.98
1532;BMP280;759;53.170;8.210;2022-12-24T07:10:15;99527.06;;;7.94
1532;BMP280;759;53.170;8.210;2022-12-24T07:12:41;99525.56;;;7.93
1532;BMP280;759;53.170;8.210;2022-12-24T07:15:07;99521.34;;;7.96
1532;BMP280;759;53.170;8.210;2022-12-24T07:17:35;99529.38;;;7.92
1532;BMP280;759;53.170;8.210;2022-12-24T07:20:01;99538.13;;;7.93
1532;BMP280;759;53.170;8.210;2022-12-24T07:22:29;99548.38;;;7.94
1532;BMP280;759;53.170;8.210;2022-12-24T07:24:55;99550.69;;;7.92
1532;BMP280;759;53.170;8.210;2022-12-24T07:27:20;99543.81;;;7.91
1532;BMP280;759;53.170;8.210;2022-12-24T07:29:45;99548.00;;;7.92
1532;BMP280;759;53.170;8.210;2022-12-24T07:32:11;99549.16;;;7.91
1532;BMP280;759;53.170;8.210;2022-12-24T07:34:37;99560.25;;;7.86
1532;BMP280;759;53.170;8.210;2022-12-24T07:37:03;99563.63;;;7.90
1532;BMP280;759;53.170;8.210;2022-12-24T07:39:29;99562.19;;;7.82
1532;BMP280;759;53.170;8.210;2022-12-24T07:41:54;99556.56;;;7.73
1532;BMP280;759;53.170;8.210;2022-12-24T07:44:19;99573.63;;;7.75
1532;BMP280;759;53.170;8.210;2022-12-24T07:46:45;99566.75;;;7.78
1532;BMP280;759;53.170;8.210;2022-12-24T07:49:25;99572.09;;;7.78
1532;BMP280;759;53.170;8.210;2022-12-24T07:52:01;99575.53;;;7.78
1532;BMP280;759;53.170;8.210;2022-12-24T07:54:40;99584.34;;;7.72
1532;BMP280;759;53.170;8.210;2022-12-24T08:00:14;99588.06;;;7.78
1532;BMP280;759;53.170;8.210;2022-12-24T08:02:45;99605.19;;;7.80
1532;BMP280;759;53.170;8.210;2022-12-24T08:08:23;99602.50;;;7.84
1532;BMP280;759;53.170;8.210;2022-12-24T08:11:14;99600.97;;;7.83
1532;BMP280;759;53.170;8.210;2022-12-24T08:13:40;99604.72;;;7.89
1532;BMP280;759;53.170;8.210;2022-12-24T08:16:05;99611.94;;;7.92
1532;BMP280;759;53.170;8.210;2022-12-24T08:18:48;99616.09;;;7.93
1532;BMP280;759;53.170;8.210;2022-12-24T08:21:46;99624.38;;;8.02
1532;BMP280;759;53.170;8.210;2022-12-24T08:30:31;99642.84;;;8.27
1532;BMP280;759;53.170;8.210;2022-12-24T08:39:29;99657.59;;;8.32
1532;BMP280;759;53.170;8.210;2022-12-24T08:41:54;99663.66;;;8.36
1532;BMP280;759;53.170;8.210;2022-12-24T08:44:20;99666.63;;;8.42
1532;BMP280;759;53.170;8.210;2022-12-24T08:46:45;99670.41;;;8.48
1532;BMP280;759;53.170;8.210;2022-12-24T08:49:10;99668.13;;;8.46
1532;BMP280;759;53.170;8.210;2022-12-24T08:51:35;99679.94;;;8.45
1532;BMP280;759;53.170;8.210;2022-12-24T08:54:01;99668.94;;;8.43
1532;BMP280;759;53.170;8.210;2022-12-24T08:56:26;99674.97;;;8.47
1532;BMP280;759;53.170;8.210;2022-12-24T08:58:51;99674.97;;;8.47
1532;BMP280;759;53.170;8.210;2022-12-24T09:01:17;99684.88;;;8.50
1532;BMP280;759;53.170;8.210;2022-12-24T09:03:43;99680.69;;;8.49
1532;BMP280;759;53.170;8.210;2022-12-24T09:06:08;99681.84;;;8.48
1532;BMP280;759;53.170;8.210;2022-12-24T09:08:34;99692.09;;;8.50
1532;BMP280;759;53.170;8.210;2022-12-24T09:11:09;99689.38;;;8.53
1532;BMP280;759;53.170;8.210;2022-12-24T09:13:35;99691.25;;;8.60
1532;BMP280;759;53.170;8.210;2022-12-24T09:16:00;99697.72;;;8.55
1532;BMP280;759;53.170;8.210;2022-12-24T09:18:26;99707.63;;;8.59
1532;BMP280;759;53.170;8.210;2022-12-24T09:20:57;99702.22;;;8.66
1532;BMP280;759;53.170;8.210;2022-12-24T09:23:22;99707.56;;;8.62
1532;BMP280;759;53.170;8.210;2022-12-24T09:25:47;99719.28;;;8.72
1532;BMP280;759;53.170;8.210;2022-12-24T09:28:12;99721.59;;;8.70
1532;BMP280;759;53.170;8.210;2022-12-24T09:30:37;99732.63;;;8.72
1532;BMP280;759;53.170;8.210;2022-12-24T09:33:03;99732.22;;;8.73
1532;BMP280;759;53.170;8.210;2022-12-24T09:35:28;99737.13;;;8.79
1532;BMP280;759;53.170;8.210;2022-12-24T09:37:53;99746.97;;;8.85
1532;BMP280;759;53.170;8.210;2022-12-24T09:40:29;99748.50;;;8.86
1532;BMP280;759;53.170;8.210;2022-12-24T09:42:55;99747.72;;;8.86
1532;BMP280;759;53.170;8.210;2022-12-24T09:45:25;99751.81;;;8.94
1532;BMP280;759;53.170;8.210;2022-12-24T09:47:54;99757.41;;;9.03
1532;BMP280;759;53.170;8.210;2022-12-24T09:50:23;99763.81;;;9.13
1532;BMP280;759;53.170;8.210;2022-12-24T09:52:50;99770.97;;;9.20
1532;BMP280;759;53.170;8.210;2022-12-24T09:57:44;99782.53;;;9.40
1532;BMP280;759;53.170;8.210;2022-12-24T10:00:15;99792.47;;;9.39
1532;BMP280;759;53.170;8.210;2022-12-24T10:02:42;99795.22;;;9.32
1532;BMP280;759;53.170;8.210;2022-12-24T10:05:11;99794.69;;;9.45
1532;BMP280;759;53.170;8.210;2022-12-24T10:07:43;99801.97;;;9.40
1532;BMP280;759;53.170;8.210;2022-12-24T10:10:14;99799.66;;;9.46
1532;BMP280;759;53.170;8.210;2022-12-24T10:15:27;99795.19;;;9.36
1532;BMP280;759;53.170;8.210;2022-12-24T10:25:40;99819.34;;;9.56
1532;BMP280;759;53.170;8.210;2022-12-24T10:28:13;99831.44;;;9.64
1532;BMP280;759;53.170;8.210;2022-12-24T10:30:39;99839.09;;;9.62
1532;BMP280;759;53.170;8.210;2022-12-24T10:33:08;99834.56;;;9.59
1532;BMP280;759;53.170;8.210;2022-12-24T10:35:38;99831.91;;;9.59
1532;BMP280;759;53.170;8.210;2022-12-24T10:38:06;99829.59;;;9.61
1532;BMP280;759;53.170;8.210;2022-12-24T10:40:47;99834.50;;;9.66
1532;BMP280;759;53.170;8.210;2022-12-24T10:43:15;99824.16;;;9.68
1532;BMP280;759;53.170;8.210;2022-12-24T10:45:42;99829.06;;;9.73
1532;BMP280;759;53.170;8.210;2022-12-24T10:48:09;99839.09;;;9.62
1532;BMP280;759;53.170;8.210;2022-12-24T10:50:51;99839.56;;;9.57
1532;BMP280;759;53.170;8.210;2022-12-24T10:53:17;99839.72;;;9.73
1532;BMP280;759;53.170;8.210;2022-12-24T10:55:46;99847.66;;;9.80
1532;BMP280;759;53.170;8.210;2022-12-24T10:58:14;99849.19;;;9.81
1532;BMP280;759;53.170;8.210;2022-12-24T11:00:39;99854.81;;;9.87
1532;BMP280;759;53.170;8.210;2022-12-24T11:03:06;99855.56;;;9.88
1532;BMP280;759;53.170;8.210;2022-12-24T11:05:33;99864.03;;;9.82
1532;BMP280;759;53.170;8.210;2022-12-24T11:08:04;99851.09;;;9.77
1532;BMP280;759;53.170;8.210;2022-12-24T11:10:30;99864.72;;;9.87
1532;BMP280;759;53.170;8.210;2022-12-24T11:12:57;99872.91;;;10.03
1532;BMP280;759;53.170;8.210;2022-12-24T11:15:26;99867.75;;;9.89
1532;BMP280;759;53.170;8.210;2022-12-24T11:18:00;99863.38;;;9.75
1532;BMP280;759;53.170;8.210;2022-12-24T11:20:28;99858.38;;;9.77
1532;BMP280;759;53.170;8.210;2022-12-24T11:22:54;99854.16;;;9.79
1532;BMP280;759;53.170;8.210;2022-12-24T11:25:21;99855.53;;;9.91
1532;BMP280;759;53.170;8.210;2022-12-24T11:27:48;99856.66;;;9.94
1532;BMP280;759;53.170;8.210;2022-12-24T11:32:41;99863.84;;;9.97
1532;BMP280;759;53.170;8.210;2022-12-24T11:35:07;99856.22;;;9.95
1532;BMP280;759;53.170;8.210;2022-12-24T11:37:32;99852.47;;;9.93
1532;BMP280;759;53.170;8.210;2022-12-24T11:39:59;99849.53;;;9.84
1532;BMP280;759;53.170;8.210;2022-12-24T11:42:34;99848.03;;;9.79
1532;BMP280;759;53.170;8.210;2022-12-24T11:45:03;99843.09;;;9.77
1532;BMP280;759;53.170;8.210;2022-12-24T11:47:36;99848.28;;;9.92
1532;BMP280;759;53.170;8.210;2022-12-24T11:52:46;99846.47;;;9.85
1532;BMP280;759;53.170;8.210;2022-12-24T11:58:04;99841.94;;;9.78
1532;BMP280;759;53.170;8.210;2022-12-24T12:00:35;99830.56;;;9.74
1532;BMP280;759;53.170;8.210;2022-12-24T12:03:00;99833.25;;;9.74
1532;BMP280;759;53.170;8.210;2022-12-24T12:05:27;99838.22;;;9.72
1532;BMP280;759;53.170;8.210;2022-12-24T12:08:16;99837.00;;;9.77
1532;BMP280;759;53.170;8.210;2022-12-24T12:10:39;99838.13;;;9.79
1532;BMP280;759;53.170;8.210;2022-12-24T12:13:08;99842.97;;;9.88
1532;BMP280;759;53.170;8.210;2022-12-24T12:15:43;99839.03;;;9.96
1532;BMP280;759;53.170;8.210;2022-12-24T12:20:40;99858.59;;;9.90
1532;BMP280;759;53.170;8.210;2022-12-24T12:25:46;99860.72;;;10.02
1532;BMP280;759;53.170;8.210;2022-12-24T12:28:24;99866.88;;;9.99
1532;BMP280;759;53.170;8.210;2022-12-24T12:31:06;99877.97;;;9.97
1532;BMP280;759;53.170;8.210;2022-12-24T12:33:52;99874.53;;;9.97
1532;BMP280;759;53.170;8.210;2022-12-24T12:36:24;99886.06;;;9.90
1532;BMP280;759;53.170;8.210;2022-12-24T12:38:50;99887.59;;;9.91
1532;BMP280;759;53.170;8.210;2022-12-24T12:48:55;99905.91;;;9.93
1532;BMP280;759;53.170;8.210;2022-12-24T12:56:35;99927.28;;;9.93
1532;BMP280;759;53.170;8.210;2022-12-24T12:59:03;99918.41;;;9.99
1532;BMP280;759;53.170;8.210;2022-12-24T13:01:35;99921.06;;;9.99
1532;BMP280;759;53.170;8.210;2022-12-24T13:12:16;99936.72;;;10.01
1532;BMP280;759;53.170;8.210;2022-12-24T13:15:00;99935.97;;;10.00
1532;BMP280;759;53.170;8.210;2022-12-24T13:20:28;99949.19;;;10.11
1532;BMP280;759;53.170;8.210;2022-12-24T13:22:56;99941.50;;;10.13
1532;BMP280;759;53.170;8.210;2022-12-24T13:25:25;99946.41;;;10.18
1532;BMP280;759;53.170;8.210;2022-12-24T13:27:51;99951.38;;;10.20
1532;BMP280;759;53.170;8.210;2022-12-24T13:33:00;99971.72;;;10.10
1532;BMP280;759;53.170;8.210;2022-12-24T13:35:26;99960.31;;;10.06
1532;BMP280;759;53.170;8.210;2022-12-24T13:37:52;99974.44;;;10.07
1532;BMP280;759;53.170;8.210;2022-12-24T13:40:26;99977.41;;;10.12
1532;BMP280;759;53.170;8.210;2022-12-24T13:53:05;100011.00;;;10.13
1532;BMP280;759;53.170;8.210;2022-12-24T13:55:32;100013.31;;;10.11
1532;BMP280;759;53.170;8.210;2022-12-24T13:57:59;100017.50;;;10.12
1532;BMP280;759;53.170;8.210;2022-12-24T14:05:22;100016.03;;;10.08
1532;BMP280;759;53.170;8.210;2022-12-24T14:07:51;100021.78;;;10.06
1532;BMP280;759;53.170;8.210;2022-12-24T14:10:24;100015.78;;;9.98
1532;BMP280;759;53.170;8.210;2022-12-24T14:12:51;100015.00;;;9.94
1532;BMP280;759;53.170;8.210;2022-12-24T14:18:00;100021.94;;;9.92
1532;BMP280;759;53.170;8.210;2022-12-24T14:20:26;100032.66;;;9.88
1532;BMP280;759;53.170;8.210;2022-12-24T14:22:51;100040.28;;;9.90
1532;BMP280;759;53.170;8.210;2022-12-24T14:25:17;100054.84;;;9.85
1532;BMP280;759;53.170;8.210;2022-12-24T14:27:48;100065.59;;;9.78
1532;BMP280;759;53.170;8.210;2022-12-24T14:30:19;100060.28;;;9.74
1532;BMP280;759;53.170;8.210;2022-12-24T14:32:45;100063.38;;;9.69
1532;BMP280;759;53.170;8.210;2022-12-24T14:35:18;100062.28;;;9.67
1532;BMP280;759;53.170;8.210;2022-12-24T14:37:45;100063.44;;;9.62
1532;BMP280;759;53.170;8.210;2022-12-24T14:40:19;100061.94;;;9.61
1532;BMP280;759;53.170;8.210;2022-12-24T14:42:48;100072.97;;;9.63
1532;BMP280;759;53.170;8.210;2022-12-24T14:45:17;100069.56;;;9.63
1532;BMP280;759;53.170;8.210;2022-12-24T14:48:34;100085.09;;;9.71
1532;BMP280;759;53.170;8.210;2022-12-24T14:55:30;100086.03;;;9.50
1532;BMP280;759;53.170;8.210;2022-12-24T15:00:42;100095.63;;;9.48
1532;BMP280;759;53.170;8.210;2022-12-24T15:03:11;100095.25;;;9.42
1532;BMP280;759;53.170;8.210;2022-12-24T15:05:38;100095.66;;;9.40
1532;BMP280;759;53.170;8.210;2022-12-24T15:08:15;100099.53;;;9.32
1532;BMP280;759;53.170;8.210;2022-12-24T15:10:46;100107.97;;;9.27
1532;BMP280;759;53.170;8.210;2022-12-24T15:15:43;100114.06;;;9.24
1532;BMP280;759;53.170;8.210;2022-12-24T15:18:13;100112.94;;;9.25
1532;BMP280;759;53.170;8.210;2022-12-24T15:20:41;100114.50;;;9.19
1532;BMP280;759;53.170;8.210;2022-12-24T15:23:15;100120.19;;;9.21
1532;BMP280;759;53.170;8.210;2022-12-24T15:25:41;100117.19;;;9.15
1532;BMP280;759;53.170;8.210;2022-12-24T15:28:21;100123.69;;;9.11
1532;BMP280;759;53.170;8.210;2022-12-24T15:30:47;100125.56;;;9.14
1532;BMP280;759;53.170;8.210;2022-12-24T15:33:14;100132.47;;;9.08
1532;BMP280;759;53.170;8.210;2022-12-24T15:35:43;100141.63;;;9.07
1532;BMP280;759;53.170;8.210;2022-12-24T15:40:49;100141.63;;;9.07
1532;BMP280;759;53.170;8.210;2022-12-24T15:43:14;100129.44;;;9.02
1532;BMP280;759;53.170;8.210;2022-12-24T15:45:41;100130.19;;;9.03
1532;BMP280;759;53.170;8.210;2022-12-24T15:48:07;100137.84;;;9.01
1532;BMP280;759;53.170;8.210;2022-12-24T15:50:34;100134.03;;;9.02
1532;BMP280;759;53.170;8.210;2022-12-24T15:53:10;100134.03;;;9.02
1532;BMP280;759;53.170;8.210;2022-12-24T15:55:37;100135.16;;;9.04
1532;BMP280;759;53.170;8.210;2022-12-24T16:03:24;100131.00;;;9.00
1532;BMP280;759;53.170;8.210;2022-12-24T16:06:01;100141.69;;;9.00
1532;BMP280;759;53.170;8.210;2022-12-24T16:08:44;100154.22;;;9.03
1532;BMP280;759;53.170;8.210;2022-12-24T16:11:11;100165.69;;;9.00
1532;BMP280;759;53.170;8.210;2022-12-24T16:13:38;100165.63;;;9.03
1532;BMP280;759;53.170;8.210;2022-12-24T16:16:08;100175.19;;;9.04
1532;BMP280;759;53.170;8.210;2022-12-24T16:18:42;100174.00;;;9.09
1532;BMP280;759;53.170;8.210;2022-12-24T16:21:08;100169.47;;;9.06
1532;BMP280;759;53.170;8.210;2022-12-24T16:23:44;100166.78;;;9.06
1532;BMP280;759;53.170;8.210;2022-12-24T16:26:10;100175.94;;;9.05
1532;BMP280;759;53.170;8.210;2022-12-24T16:28:37;100175.19;;;9.04
1532;BMP280;759;53.170;8.210;2022-12-24T16:31:04;100181.31;;;8.97
1532;BMP280;759;53.170;8.210;2022-12-24T16:33:29;100189.72;;;9.00
1532;BMP280;759;53.170;8.210;2022-12-24T16:35:56;100189.72;;;9.00
1532;BMP280;759;53.170;8.210;2022-12-24T16:38:22;100198.47;;;8.96
1532;BMP280;759;53.170;8.210;2022-12-24T16:40:47;100185.88;;;9.01
1532;BMP280;759;53.170;8.210;2022-12-24T16:43:12;100211.41;;;9.02
1532;BMP280;759;53.170;8.210;2022-12-24T16:46:00;100219.38;;;9.05
1532;BMP280;759;53.170;8.210;2022-12-24T16:48:25;100226.25;;;9.03
1532;BMP280;759;53.170;8.210;2022-12-24T16:50:51;100224.72;;;9.09
1532;BMP280;759;53.170;8.210;2022-12-24T16:53:17;100244.19;;;9.09
1532;BMP280;759;53.170;8.210;2022-12-24T16:55:44;100234.63;;;9.05
1532;BMP280;759;53.170;8.210;2022-12-24T16:58:14;100240.75;;;9.02
1532;BMP280;759;53.170;8.210;2022-12-24T17:00:39;100240.75;;;9.02
1532;BMP280;759;53.170;8.210;2022-12-24T17:03:08;100240.78;;;8.98
1532;BMP280;759;53.170;8.210;2022-12-24T17:05:40;100253.69;;;9.03
1532;BMP280;759;53.170;8.210;2022-12-24T17:08:25;100257.53;;;9.06